Time;durP1;ratioP1;P1;durP2;ratioP2;P2;SDS_P1;SDS_P2;PMS_P1;PMS_P2;Temp;Humidity;BMP_temperature;BMP_pressure;BME280_temperature;BME280_humidity;BME280_pressure;Samples;Min_cycle;Max_cycle;Signal;HPM_P1;HPM_P2
2022/10/20 00:01:21;;;;;;;8.38;3.60;;;;;;;;;;4965915;28;20023;-73
2022/10/20 00:03:47;;;;;;;7.00;3.08;;;;;;;;;;4968011;28;20082;-69
2022/10/20 00:06:15;;;;;;;8.77;3.13;;;;;;;;;;4963626;28;20050;-72
2022/10/20 00:08:42;;;;;;;5.38;3.25;;;;;;;;;;4966590;28;20115;-70
2022/10/20 00:11:08;;;;;;;8.25;4.05;;;;;;;;;;4965945;28;20062;-70
2022/10/20 00:13:34;;;;;;;7.97;3.80;;;;;;;;;;4965869;28;20114;-70
2022/10/20 00:16:00;;;;;;;7.40;2.88;;;;;;;;;;4955680;28;20126;-70
2022/10/20 00:18:27;;;;;;;12.20;3.55;;;;;;;;;;4960734;28;20055;-69
2022/10/20 00:20:54;;;;;;;9.27;3.50;;;;;;;;;;4966846;28;20066;-70
2022/10/20 00:23:20;;;;;;;7.05;3.35;;;;;;;;;;4962481;28;20027;-72
2022/10/20 00:25:46;;;;;;;7.88;3.28;;;;;;;;;;4966135;28;20027;-69
2022/10/20 00:28:12;;;;;;;10.38;3.70;;;;;;;;;;4967153;28;20019;-70
2022/10/20 00:30:39;;;;;;;11.52;3.65;;;;;;;;;;4965115;28;20344;-69
2022/10/20 00:33:05;;;;;;;6.80;3.20;;;;;;;;;;4966738;28;20031;-73
2022/10/20 00:35:32;;;;;;;7.60;3.42;;;;;;;;;;4968152;28;21063;-69
2022/10/20 00:37:58;;;;;;;5.07;3.30;;;;;;;;;;4963347;28;20406;-70
2022/10/20 00:40:25;;;;;;;9.05;3.22;;;;;;;;;;4966346;28;20579;-73
2022/10/20 00:42:51;;;;;;;9.13;3.72;;;;;;;;;;4966649;28;20033;-72
2022/10/20 00:45:18;;;;;;;9.95;3.72;;;;;;;;;;4967466;28;20522;-70
2022/10/20 00:48:04;;;;;;;10.32;3.30;;;;;;;;;;4965040;28;20121;-72
2022/10/20 00:50:32;;;;;;;5.70;3.40;;;;;;;;;;4980686;28;20014;-69
2022/10/20 00:52:59;;;;;;;9.75;3.72;;;;;;;;;;4965878;28;20359;-69
2022/10/20 00:55:27;;;;;;;12.70;4.43;;;;;;;;;;4964538;28;20026;-72
2022/10/20 00:57:54;;;;;;;14.95;3.90;;;;;;;;;;4965189;28;20463;-70
2022/10/20 01:05:32;;;;;;;10.98;4.20;;;;;;;;;;4982219;23;20058;-70
2022/10/20 01:07:58;;;;;;;12.93;3.70;;;;;;;;;;4974553;28;20073;-71
2022/10/20 01:10:27;;;;;;;13.55;4.20;;;;;;;;;;4981453;28;20042;-71
2022/10/20 01:12:53;;;;;;;12.68;4.93;;;;;;;;;;4984156;28;20038;-71
2022/10/20 01:15:25;;;;;;;9.48;3.65;;;;;;;;;;4985655;28;20505;-68
2022/10/20 01:17:51;;;;;;;13.23;4.28;;;;;;;;;;4981757;28;20038;-71
2022/10/20 01:20:28;;;;;;;10.23;4.40;;;;;;;;;;4985020;28;20058;-73
2022/10/20 01:22:57;;;;;;;10.40;4.15;;;;;;;;;;4987499;28;20034;-70
2022/10/20 01:25:26;;;;;;;8.85;5.30;;;;;;;;;;4989842;28;20022;-70
2022/10/20 01:27:54;;;;;;;13.20;5.15;;;;;;;;;;4985169;28;20442;-72
2022/10/20 01:30:21;;;;;;;10.00;3.47;;;;;;;;;;4990222;28;20597;-71
2022/10/20 01:32:47;;;;;;;10.00;4.60;;;;;;;;;;4988651;28;20085;-71
2022/10/20 01:35:21;;;;;;;6.72;3.95;;;;;;;;;;4990257;28;20026;-71
2022/10/20 01:37:50;;;;;;;10.65;3.28;;;;;;;;;;4985269;28;20022;-71
2022/10/20 01:40:36;;;;;;;14.13;4.10;;;;;;;;;;4990634;28;20426;-71
2022/10/20 01:43:05;;;;;;;7.15;3.53;;;;;;;;;;4987005;28;20517;-71
2022/10/20 01:45:32;;;;;;;6.07;3.63;;;;;;;;;;4989837;28;20062;-70
2022/10/20 01:47:59;;;;;;;9.05;4.47;;;;;;;;;;4982757;28;20047;-70
2022/10/20 01:50:25;;;;;;;10.85;4.78;;;;;;;;;;4990870;28;20031;-71
2022/10/20 01:52:55;;;;;;;11.68;3.85;;;;;;;;;;4987565;28;20102;-71
2022/10/20 01:55:21;;;;;;;11.00;3.72;;;;;;;;;;4987816;28;20435;-72
2022/10/20 01:57:50;;;;;;;12.45;4.28;;;;;;;;;;4986496;28;20038;-71
2022/10/20 02:00:16;;;;;;;9.60;3.95;;;;;;;;;;4976269;28;20093;-71
2022/10/20 02:02:49;;;;;;;7.70;3.60;;;;;;;;;;4987283;28;20041;-71
2022/10/20 02:05:33;;;;;;;9.63;3.97;;;;;;;;;;4991115;28;20046;-71
2022/10/20 02:08:04;;;;;;;11.35;3.58;;;;;;;;;;4993849;28;20039;-72
2022/10/20 02:10:34;;;;;;;10.40;3.95;;;;;;;;;;4989820;28;20478;-72
2022/10/20 02:13:03;;;;;;;6.93;3.70;;;;;;;;;;4989686;28;20073;-71
2022/10/20 02:15:31;;;;;;;11.20;3.65;;;;;;;;;;4989526;28;20018;-71
2022/10/20 02:17:59;;;;;;;9.18;4.28;;;;;;;;;;4993074;28;20030;-71
2022/10/20 02:20:26;;;;;;;10.55;5.03;;;;;;;;;;4989295;28;20093;-70
2022/10/20 02:22:53;;;;;;;6.53;3.42;;;;;;;;;;4992874;28;20414;-71
2022/10/20 02:25:19;;;;;;;8.10;3.80;;;;;;;;;;4985293;28;20034;-71
2022/10/20 02:27:46;;;;;;;9.00;4.03;;;;;;;;;;4992222;28;20039;-71
2022/10/20 02:30:14;;;;;;;10.73;3.90;;;;;;;;;;4991568;28;20022;-71
2022/10/20 02:32:41;;;;;;;6.68;3.75;;;;;;;;;;4986642;28;20101;-71
2022/10/20 02:35:10;;;;;;;13.10;3.55;;;;;;;;;;4984745;28;20537;-71
2022/10/20 02:37:36;;;;;;;9.50;3.40;;;;;;;;;;4992795;28;20030;-71
2022/10/20 02:40:02;;;;;;;14.63;3.70;;;;;;;;;;4990789;28;20038;-72
2022/10/20 02:42:28;;;;;;;9.68;3.72;;;;;;;;;;4991637;28;20046;-71
2022/10/20 02:44:54;;;;;;;6.13;3.20;;;;;;;;;;4972346;28;20042;-71
2022/10/20 02:47:21;;;;;;;8.27;3.55;;;;;;;;;;4991844;28;20035;-71
2022/10/20 02:49:47;;;;;;;8.57;3.72;;;;;;;;;;4991817;28;20029;-70
2022/10/20 02:52:14;;;;;;;9.98;4.18;;;;;;;;;;4990345;28;20076;-70
2022/10/20 02:54:40;;;;;;;6.10;3.60;;;;;;;;;;4992308;28;20046;-69
2022/10/20 02:57:07;;;;;;;6.97;3.47;;;;;;;;;;4991321;28;20038;-69
2022/10/20 02:59:33;;;;;;;10.68;4.10;;;;;;;;;;4987936;28;20042;-69
2022/10/20 03:01:59;;;;;;;11.30;3.80;;;;;;;;;;4990646;28;20034;-71
2022/10/20 03:04:25;;;;;;;11.57;4.00;;;;;;;;;;4990714;28;20399;-70
2022/10/20 03:06:51;;;;;;;7.05;4.18;;;;;;;;;;4979346;28;20031;-70
2022/10/20 03:09:17;;;;;;;10.25;3.60;;;;;;;;;;4989350;28;20034;-70
2022/10/20 03:11:43;;;;;;;9.15;4.25;;;;;;;;;;4989698;28;20377;-69
2022/10/20 03:14:10;;;;;;;7.15;3.80;;;;;;;;;;4992562;28;20449;-73
2022/10/20 03:16:36;;;;;;;11.43;4.47;;;;;;;;;;4987368;28;20038;-69
2022/10/20 03:19:02;;;;;;;5.20;3.78;;;;;;;;;;4991568;28;20447;-71
2022/10/20 03:21:28;;;;;;;12.35;4.65;;;;;;;;;;4987398;28;20023;-72
2022/10/20 03:23:54;;;;;;;8.90;5.15;;;;;;;;;;4991940;28;20662;-71
2022/10/20 03:26:20;;;;;;;10.73;4.38;;;;;;;;;;4988966;28;20054;-70
2022/10/20 03:28:46;;;;;;;10.05;4.40;;;;;;;;;;4992830;28;20038;-71
2022/10/20 03:31:12;;;;;;;7.80;4.32;;;;;;;;;;4988938;28;20031;-70
2022/10/20 03:33:38;;;;;;;5.72;4.10;;;;;;;;;;4990066;28;20030;-72
2022/10/20 03:36:05;;;;;;;6.40;4.35;;;;;;;;;;4992126;28;20037;-71
2022/10/20 03:38:31;;;;;;;10.38;4.43;;;;;;;;;;4985641;28;20031;-71
2022/10/20 03:40:57;;;;;;;22.10;4.38;;;;;;;;;;4991291;28;20515;-71
2022/10/20 03:43:23;;;;;;;10.00;4.63;;;;;;;;;;4990409;28;20843;-71
2022/10/20 03:45:49;;;;;;;9.13;4.68;;;;;;;;;;4992191;28;20497;-71
2022/10/20 03:48:15;;;;;;;7.72;4.90;;;;;;;;;;4987699;28;20109;-71
2022/10/20 03:50:42;;;;;;;12.07;4.88;;;;;;;;;;4990866;28;20026;-70
2022/10/20 03:53:08;;;;;;;8.98;4.53;;;;;;;;;;4989059;28;20073;-70
2022/10/20 03:55:36;;;;;;;9.18;5.30;;;;;;;;;;4991026;28;20043;-71
2022/10/20 03:58:03;;;;;;;9.05;4.47;;;;;;;;;;4987125;28;20037;-71
2022/10/20 04:00:29;;;;;;;12.80;4.75;;;;;;;;;;4990081;28;20040;-71
2022/10/20 04:02:55;;;;;;;9.55;5.50;;;;;;;;;;4991484;28;20635;-72
2022/10/20 04:05:21;;;;;;;8.48;5.38;;;;;;;;;;4991379;28;20181;-72
2022/10/20 04:07:48;;;;;;;10.98;5.82;;;;;;;;;;4986809;28;20077;-72
2022/10/20 04:10:15;;;;;;;13.43;5.57;;;;;;;;;;5001211;28;20059;-71
2022/10/20 04:12:41;;;;;;;9.75;5.32;;;;;;;;;;4987933;28;20410;-72
2022/10/20 04:15:08;;;;;;;8.38;5.35;;;;;;;;;;4988999;28;20042;-72
2022/10/20 04:17:35;;;;;;;10.85;5.78;;;;;;;;;;4989813;28;20061;-71
2022/10/20 04:20:01;;;;;;;10.13;5.68;;;;;;;;;;4987986;28;20471;-71
2022/10/20 04:22:27;;;;;;;14.07;6.55;;;;;;;;;;5005456;28;20039;-71
2022/10/20 04:24:53;;;;;;;9.60;5.78;;;;;;;;;;4967156;28;20039;-71
2022/10/20 04:27:20;;;;;;;13.38;6.80;;;;;;;;;;5004487;28;20037;-70
2022/10/20 04:29:46;;;;;;;12.38;5.93;;;;;;;;;;4989949;28;20041;-70
2022/10/20 04:32:12;;;;;;;10.02;5.97;;;;;;;;;;4990653;28;20038;-70
2022/10/20 04:34:38;;;;;;;10.05;6.72;;;;;;;;;;4980730;28;20043;-70
2022/10/20 04:37:04;;;;;;;9.50;6.07;;;;;;;;;;4987846;28;20026;-71
2022/10/20 04:39:31;;;;;;;12.90;6.63;;;;;;;;;;4981182;28;20042;-70
2022/10/20 04:41:57;;;;;;;9.98;6.35;;;;;;;;;;4988749;28;20073;-71
2022/10/20 04:44:23;;;;;;;13.48;7.25;;;;;;;;;;4988091;28;20094;-71
2022/10/20 04:46:49;;;;;;;11.52;7.05;;;;;;;;;;4991931;28;20038;-72
2022/10/20 04:49:15;;;;;;;11.75;6.80;;;;;;;;;;4988031;28;20035;-71
2022/10/20 04:51:41;;;;;;;15.98;7.35;;;;;;;;;;4989409;28;20092;-70
2022/10/20 04:54:07;;;;;;;12.45;6.55;;;;;;;;;;4989755;28;20091;-71
2022/10/20 04:56:33;;;;;;;12.60;7.15;;;;;;;;;;4986875;28;20026;-70
2022/10/20 04:58:59;;;;;;;12.68;7.97;;;;;;;;;;4989509;28;20027;-70
2022/10/20 05:01:27;;;;;;;12.27;7.28;;;;;;;;;;4981756;28;20050;-70
2022/10/20 05:03:53;;;;;;;13.50;7.13;;;;;;;;;;4978849;28;20035;-70
2022/10/20 05:06:21;;;;;;;9.13;7.15;;;;;;;;;;4974122;28;20556;-71
2022/10/20 05:08:48;;;;;;;11.82;8.40;;;;;;;;;;4969984;28;20047;-73
2022/10/20 05:11:15;;;;;;;10.45;7.35;;;;;;;;;;4972614;28;20076;-71
2022/10/20 05:13:41;;;;;;;20.52;10.63;;;;;;;;;;4983708;28;20062;-68
2022/10/20 05:16:07;;;;;;;23.55;12.32;;;;;;;;;;4984104;28;20038;-68
2022/10/20 05:18:34;;;;;;;13.70;8.43;;;;;;;;;;4987542;28;20026;-71
2022/10/20 05:21:04;;;;;;;12.73;7.65;;;;;;;;;;4977961;28;20037;-70
2022/10/20 05:23:30;;;;;;;11.35;8.75;;;;;;;;;;4990758;28;20435;-71
2022/10/20 05:25:56;;;;;;;15.15;8.90;;;;;;;;;;4993840;28;20038;-70
2022/10/20 05:28:22;;;;;;;16.85;8.45;;;;;;;;;;4988436;28;20042;-71
2022/10/20 05:30:48;;;;;;;13.10;9.10;;;;;;;;;;4993614;28;20034;-71
2022/10/20 05:33:14;;;;;;;12.85;7.70;;;;;;;;;;4989380;28;20054;-72
2022/10/20 05:35:40;;;;;;;16.75;8.45;;;;;;;;;;4990804;28;20042;-71
2022/10/20 05:38:06;;;;;;;10.90;8.55;;;;;;;;;;4995049;28;20034;-72
2022/10/20 05:40:32;;;;;;;13.18;8.50;;;;;;;;;;4993107;28;20085;-71
2022/10/20 05:42:58;;;;;;;12.40;7.80;;;;;;;;;;4989429;28;20050;-71
2022/10/20 05:45:24;;;;;;;14.40;9.02;;;;;;;;;;4993283;28;20027;-69
2022/10/20 05:47:50;;;;;;;15.73;10.20;;;;;;;;;;4995094;28;20038;-70
2022/10/20 05:50:16;;;;;;;14.82;9.90;;;;;;;;;;4994458;28;20383;-72
2022/10/20 05:52:43;;;;;;;14.32;10.10;;;;;;;;;;4991864;28;20042;-72
2022/10/20 05:55:09;;;;;;;15.60;9.43;;;;;;;;;;5005659;28;20479;-71
2022/10/20 05:57:35;;;;;;;13.93;8.95;;;;;;;;;;5002848;28;20037;-72
2022/10/20 06:00:01;;;;;;;13.05;8.63;;;;;;;;;;4985752;28;20215;-70
2022/10/20 06:02:27;;;;;;;18.25;9.48;;;;;;;;;;4992239;28;20038;-71
2022/10/20 06:04:53;;;;;;;24.10;15.30;;;;;;;;;;4993746;28;20104;-68
2022/10/20 06:07:19;;;;;;;15.65;12.02;;;;;;;;;;4992855;28;20092;-70
2022/10/20 06:09:45;;;;;;;14.05;9.93;;;;;;;;;;4989030;28;20053;-72
2022/10/20 06:12:11;;;;;;;11.82;8.73;;;;;;;;;;4987277;28;20089;-71
2022/10/20 06:14:37;;;;;;;14.52;9.32;;;;;;;;;;4991928;28;20042;-71
2022/10/20 06:17:03;;;;;;;12.20;10.20;;;;;;;;;;4990592;28;20065;-70
2022/10/20 06:19:29;;;;;;;13.52;10.00;;;;;;;;;;4988995;28;20038;-70
2022/10/20 06:21:55;;;;;;;20.20;11.20;;;;;;;;;;4976024;28;20081;-71
2022/10/20 06:24:21;;;;;;;14.73;10.10;;;;;;;;;;4989569;28;20101;-70
2022/10/20 06:26:47;;;;;;;18.38;9.75;;;;;;;;;;4990690;28;20038;-73
2022/10/20 06:29:15;;;;;;;15.68;10.20;;;;;;;;;;4989666;28;20038;-71
2022/10/20 06:31:45;;;;;;;12.80;9.93;;;;;;;;;;4982970;28;20069;-69
2022/10/20 06:34:14;;;;;;;17.42;9.60;;;;;;;;;;4993446;28;20053;-70
2022/10/20 06:36:41;;;;;;;13.75;10.45;;;;;;;;;;4991538;28;20113;-69
2022/10/20 06:39:08;;;;;;;16.77;9.98;;;;;;;;;;5003155;28;20440;-71
2022/10/20 06:41:34;;;;;;;21.13;10.55;;;;;;;;;;4993407;28;20027;-69
2022/10/20 06:44:00;;;;;;;14.70;10.32;;;;;;;;;;4990548;28;20034;-68
2022/10/20 06:46:28;;;;;;;12.85;10.43;;;;;;;;;;4990302;28;20039;-71
2022/10/20 06:48:54;;;;;;;14.93;10.45;;;;;;;;;;4992956;28;20410;-69
2022/10/20 06:51:23;;;;;;;14.48;10.80;;;;;;;;;;4991487;28;20033;-71
2022/10/20 06:53:50;;;;;;;14.40;10.20;;;;;;;;;;4992829;28;20462;-70
2022/10/20 06:56:17;;;;;;;17.23;11.35;;;;;;;;;;4992221;28;20026;-70
2022/10/20 06:58:44;;;;;;;22.13;10.52;;;;;;;;;;4991956;28;20126;-69
2022/10/20 07:01:24;;;;;;;14.93;10.55;;;;;;;;;;4991652;28;20031;-71
2022/10/20 07:03:51;;;;;;;15.55;10.30;;;;;;;;;;4991440;28;20045;-69
2022/10/20 07:06:20;;;;;;;14.23;10.57;;;;;;;;;;4990308;28;20047;-72
2022/10/20 07:08:46;;;;;;;16.65;10.00;;;;;;;;;;5000121;28;20102;-69
2022/10/20 07:11:13;;;;;;;16.95;10.93;;;;;;;;;;4992393;28;20045;-69
2022/10/20 07:13:40;;;;;;;14.57;10.18;;;;;;;;;;4992410;28;20034;-69
2022/10/20 07:16:08;;;;;;;16.60;10.32;;;;;;;;;;5007436;28;20467;-69
2022/10/20 07:18:35;;;;;;;16.48;10.35;;;;;;;;;;4991005;28;20030;-70
2022/10/20 07:21:03;;;;;;;13.27;10.30;;;;;;;;;;4992649;28;20100;-69
2022/10/20 07:23:30;;;;;;;13.30;10.80;;;;;;;;;;4991794;28;20475;-69
2022/10/20 07:26:05;;;;;;;15.93;11.65;;;;;;;;;;4990965;28;20133;-69
2022/10/20 07:28:31;;;;;;;17.75;10.85;;;;;;;;;;4992166;28;20073;-69
2022/10/20 07:30:58;;;;;;;16.30;10.85;;;;;;;;;;4991635;28;20608;-70
2022/10/20 07:33:24;;;;;;;16.15;10.65;;;;;;;;;;4992915;28;20041;-68
2022/10/20 07:35:50;;;;;;;16.88;10.48;;;;;;;;;;4988777;28;20031;-72
2022/10/20 07:38:16;;;;;;;13.93;10.43;;;;;;;;;;4990858;28;20069;-69
2022/10/20 07:40:42;;;;;;;18.77;11.07;;;;;;;;;;4991712;28;20422;-69
2022/10/20 07:43:08;;;;;;;14.90;11.05;;;;;;;;;;4990294;28;20426;-72
2022/10/20 07:45:34;;;;;;;12.02;10.55;;;;;;;;;;4992022;28;20026;-73
2022/10/20 07:48:03;;;;;;;21.05;10.90;;;;;;;;;;4992335;28;20039;-69
2022/10/20 07:50:29;;;;;;;15.43;10.55;;;;;;;;;;4987950;28;20081;-73
2022/10/20 07:52:55;;;;;;;13.73;9.82;;;;;;;;;;4991341;28;20038;-69
2022/10/20 07:55:21;;;;;;;12.52;9.52;;;;;;;;;;4992103;28;20034;-71
2022/10/20 07:57:47;;;;;;;13.38;9.98;;;;;;;;;;4991741;28;20030;-69
2022/10/20 08:00:13;;;;;;;12.90;9.52;;;;;;;;;;4991870;28;20034;-69
2022/10/20 08:02:40;;;;;;;13.55;10.30;;;;;;;;;;4980755;28;20045;-69
2022/10/20 08:05:06;;;;;;;16.08;10.07;;;;;;;;;;4991581;28;20073;-68
2022/10/20 08:07:32;;;;;;;13.68;9.60;;;;;;;;;;4990667;28;20091;-69
2022/10/20 08:09:58;;;;;;;11.68;9.20;;;;;;;;;;4989602;28;20034;-72
2022/10/20 08:12:25;;;;;;;14.73;10.13;;;;;;;;;;4990029;28;20127;-71
2022/10/20 08:14:51;;;;;;;14.50;9.27;;;;;;;;;;4985597;28;20046;-70
2022/10/20 08:17:17;;;;;;;14.38;10.00;;;;;;;;;;4990620;28;20034;-70
2022/10/20 08:19:43;;;;;;;12.77;8.90;;;;;;;;;;4990225;28;20104;-69
2022/10/20 08:22:10;;;;;;;11.90;9.30;;;;;;;;;;4990063;28;20030;-69
2022/10/20 08:24:36;;;;;;;12.45;9.25;;;;;;;;;;4989740;28;20125;-69
2022/10/20 08:27:02;;;;;;;11.45;9.15;;;;;;;;;;4989882;28;20038;-72
2022/10/20 08:29:28;;;;;;;15.82;8.43;;;;;;;;;;4988731;28;20034;-72
2022/10/20 08:31:54;;;;;;;13.55;9.30;;;;;;;;;;4989887;28;20123;-71
2022/10/20 08:34:20;;;;;;;10.13;9.10;;;;;;;;;;4990241;28;20081;-69
2022/10/20 08:36:46;;;;;;;15.63;8.90;;;;;;;;;;4990609;28;20494;-70
2022/10/20 08:39:12;;;;;;;10.13;8.70;;;;;;;;;;4986883;28;20038;-69
2022/10/20 08:41:41;;;;;;;12.15;8.35;;;;;;;;;;4981631;28;20046;-69
2022/10/20 08:44:07;;;;;;;10.40;8.48;;;;;;;;;;4990353;28;20037;-69
2022/10/20 08:46:35;;;;;;;9.95;7.78;;;;;;;;;;4984757;28;20526;-71
2022/10/20 08:49:01;;;;;;;15.30;8.95;;;;;;;;;;4988664;28;20395;-74
2022/10/20 08:51:37;;;;;;;13.13;7.25;;;;;;;;;;4987049;28;20038;-72
2022/10/20 08:54:04;;;;;;;16.90;8.15;;;;;;;;;;4982583;28;20087;-70
2022/10/20 08:56:32;;;;;;;8.90;8.07;;;;;;;;;;4988917;28;20391;-71
2022/10/20 08:58:58;;;;;;;11.35;8.13;;;;;;;;;;4990595;28;20034;-70
2022/10/20 09:01:26;;;;;;;11.68;7.95;;;;;;;;;;4989684;28;20033;-70
2022/10/20 09:03:55;;;;;;;11.18;7.63;;;;;;;;;;4985842;28;20038;-70
2022/10/20 09:06:21;;;;;;;9.18;6.70;;;;;;;;;;4991218;28;20088;-71
2022/10/20 09:08:47;;;;;;;12.30;7.32;;;;;;;;;;4989703;28;20607;-70
2022/10/20 09:11:15;;;;;;;10.95;7.53;;;;;;;;;;4988970;28;20035;-69
2022/10/20 09:13:41;;;;;;;9.07;7.90;;;;;;;;;;4988123;28;20045;-74
2022/10/20 09:16:13;;;;;;;10.85;7.28;;;;;;;;;;4990092;28;20081;-73
2022/10/20 09:18:39;;;;;;;11.52;7.30;;;;;;;;;;4988329;28;20497;-69
2022/10/20 09:21:08;;;;;;;8.02;6.53;;;;;;;;;;4989383;28;20053;-69
2022/10/20 09:23:41;;;;;;;8.63;6.80;;;;;;;;;;4989241;28;20026;-69
2022/10/20 09:26:15;;;;;;;11.23;7.18;;;;;;;;;;4990510;28;20085;-68
2022/10/20 09:28:41;;;;;;;11.05;7.22;;;;;;;;;;4989418;28;20546;-74
2022/10/20 09:31:27;;;;;;;12.20;7.00;;;;;;;;;;4987664;28;20031;-68
2022/10/20 09:33:53;;;;;;;11.82;7.07;;;;;;;;;;4989362;28;20093;-70
2022/10/20 09:36:20;;;;;;;9.15;7.13;;;;;;;;;;4990324;28;20075;-68
2022/10/20 09:38:48;;;;;;;8.98;7.53;;;;;;;;;;4990639;28;20035;-68
2022/10/20 09:41:14;;;;;;;8.40;6.25;;;;;;;;;;4988619;28;20031;-70
2022/10/20 09:43:47;;;;;;;10.38;7.18;;;;;;;;;;4990315;28;20034;-69
2022/10/20 09:46:17;;;;;;;9.98;7.00;;;;;;;;;;4989390;28;20102;-68
2022/10/20 09:48:49;;;;;;;10.70;6.93;;;;;;;;;;4989586;28;20422;-70
2022/10/20 09:51:18;;;;;;;8.57;6.30;;;;;;;;;;4989269;28;20445;-69
2022/10/20 09:53:52;;;;;;;9.73;6.80;;;;;;;;;;4989441;28;20031;-70
2022/10/20 09:56:32;;;;;;;9.57;6.38;;;;;;;;;;4989661;28;20030;-70
2022/10/20 09:58:59;;;;;;;7.45;6.00;;;;;;;;;;4983127;28;20053;-74
2022/10/20 10:01:25;;;;;;;13.65;7.63;;;;;;;;;;4985771;28;20386;-73
2022/10/20 10:03:54;;;;;;;9.13;6.07;;;;;;;;;;4987264;28;20073;-70
2022/10/20 10:06:23;;;;;;;9.55;5.95;;;;;;;;;;4990286;28;20457;-73
2022/10/20 10:08:49;;;;;;;10.98;6.07;;;;;;;;;;4986370;28;20498;-70
2022/10/20 10:11:16;;;;;;;7.47;5.97;;;;;;;;;;4989813;28;20050;-69
2022/10/20 10:13:44;;;;;;;10.55;5.65;;;;;;;;;;4988367;28;20034;-69
2022/10/20 10:16:15;;;;;;;8.52;6.35;;;;;;;;;;5004563;28;20061;-69
2022/10/20 10:18:43;;;;;;;10.40;5.32;;;;;;;;;;4989980;28;20046;-75
2022/10/20 10:21:16;;;;;;;6.15;5.43;;;;;;;;;;4989092;28;20101;-70
2022/10/20 10:23:53;;;;;;;11.27;6.10;;;;;;;;;;4993195;28;20038;-69
2022/10/20 10:26:34;;;;;;;6.93;6.22;;;;;;;;;;4981241;28;20027;-70
2022/10/20 10:29:00;;;;;;;6.95;5.90;;;;;;;;;;5004266;28;20034;-71
2022/10/20 10:31:26;;;;;;;8.75;6.15;;;;;;;;;;4993170;28;20482;-70
2022/10/20 10:33:54;;;;;;;6.72;5.10;;;;;;;;;;4991861;28;20385;-75
2022/10/20 10:36:26;;;;;;;9.68;6.05;;;;;;;;;;4989385;28;20504;-69
2022/10/20 10:38:52;;;;;;;8.90;6.15;;;;;;;;;;4992256;28;20027;-71
2022/10/20 10:41:41;;;;;;;7.95;6.35;;;;;;;;;;4993212;28;20158;-70
2022/10/20 10:44:07;;;;;;;8.18;5.85;;;;;;;;;;5000898;28;20042;-71
2022/10/20 10:46:40;;;;;;;16.42;5.82;;;;;;;;;;4989901;28;20379;-74
2022/10/20 10:49:15;;;;;;;5.80;4.93;;;;;;;;;;4993406;28;20027;-70
2022/10/20 10:51:41;;;;;;;7.10;5.15;;;;;;;;;;4993191;28;20038;-70
2022/10/20 10:54:17;;;;;;;12.55;5.40;;;;;;;;;;4993218;28;20089;-71
2022/10/20 10:56:45;;;;;;;8.25;5.05;;;;;;;;;;4989540;28;20850;-70
2022/10/20 10:59:17;;;;;;;10.25;5.43;;;;;;;;;;5005340;28;20088;-70
2022/10/20 11:01:43;;;;;;;8.80;5.32;;;;;;;;;;4992651;28;20103;-70
2022/10/20 11:04:12;;;;;;;8.27;5.50;;;;;;;;;;4997556;28;20030;-70
2022/10/20 11:06:53;;;;;;;6.15;5.15;;;;;;;;;;5001416;28;20066;-71
2022/10/20 11:09:19;;;;;;;9.43;5.05;;;;;;;;;;4991966;28;20026;-70
2022/10/20 11:11:51;;;;;;;9.43;6.30;;;;;;;;;;4989444;28;20717;-72
2022/10/20 11:14:23;;;;;;;8.80;5.50;;;;;;;;;;4992320;28;20030;-70
2022/10/20 11:16:49;;;;;;;;;;;;;;;;;;4993448;28;20109;-71
2022/10/20 11:19:34;;;;;;;10.68;4.70;;;;;;;;;;4992191;28;20028;-70
2022/10/20 11:22:20;;;;;;;8.43;5.50;;;;;;;;;;4992410;28;20039;-70
2022/10/20 11:25:05;;;;;;;11.50;5.60;;;;;;;;;;4992449;28;21039;-71
2022/10/20 11:27:34;;;;;;;10.52;5.35;;;;;;;;;;4992444;28;20034;-72
2022/10/20 11:30:07;;;;;;;13.10;6.20;;;;;;;;;;4990990;28;20035;-71
2022/10/20 11:32:33;;;;;;;8.55;5.78;;;;;;;;;;4989492;28;20048;-71
2022/10/20 11:35:13;;;;;;;9.48;5.70;;;;;;;;;;4991352;28;20030;-72
2022/10/20 11:37:51;;;;;;;10.38;5.65;;;;;;;;;;4979340;28;20467;-71
2022/10/20 11:40:24;;;;;;;6.72;6.03;;;;;;;;;;4992291;28;20110;-71
2022/10/20 11:42:53;;;;;;;12.77;6.00;;;;;;;;;;4989515;28;20034;-71
2022/10/20 11:45:31;;;;;;;8.10;5.45;;;;;;;;;;4989093;28;20081;-71
2022/10/20 11:48:01;;;;;;;9.48;6.35;;;;;;;;;;4988985;28;20565;-71
2022/10/20 11:50:27;;;;;;;11.77;6.03;;;;;;;;;;4991391;28;20530;-71
2022/10/20 11:52:59;;;;;;;10.55;5.82;;;;;;;;;;4989080;28;20043;-72
2022/10/20 11:55:34;;;;;;;12.63;7.38;;;;;;;;;;4986414;28;20193;-70
2022/10/20 11:58:21;;;;;;;7.78;5.63;;;;;;;;;;4991071;28;20033;-71
2022/10/20 12:00:56;;;;;;;8.70;6.45;;;;;;;;;;4990598;28;20038;-70
2022/10/20 12:03:35;;;;;;;12.23;6.63;;;;;;;;;;4997509;28;20081;-71
2022/10/20 12:06:15;;;;;;;8.93;6.32;;;;;;;;;;4985539;28;20054;-75
2022/10/20 12:08:56;;;;;;;10.40;6.25;;;;;;;;;;4998609;28;20030;-71
2022/10/20 12:11:45;;;;;;;8.18;6.40;;;;;;;;;;4991565;28;20092;-71
2022/10/20 12:14:14;;;;;;;8.45;6.35;;;;;;;;;;4990936;28;20041;-71
2022/10/20 12:16:52;;;;;;;7.90;6.65;;;;;;;;;;4984051;28;20034;-72
2022/10/20 12:19:25;;;;;;;13.23;6.45;;;;;;;;;;5004461;28;20034;-70
2022/10/20 12:22:05;;;;;;;8.07;6.65;;;;;;;;;;4990654;28;20065;-72
2022/10/20 12:24:36;;;;;;;10.40;6.93;;;;;;;;;;4991596;28;20069;-72
2022/10/20 12:27:05;;;;;;;8.88;7.95;;;;;;;;;;4987923;28;20077;-72
2022/10/20 12:29:31;;;;;;;12.05;8.30;;;;;;;;;;4991567;28;20038;-72
2022/10/20 12:32:19;;;;;;;8.70;7.28;;;;;;;;;;4991392;28;20470;-71
2022/10/20 12:34:46;;;;;;;15.43;7.20;;;;;;;;;;4989361;28;20085;-73
2022/10/20 12:37:17;;;;;;;10.82;7.90;;;;;;;;;;4989934;28;20038;-73
2022/10/20 12:39:43;;;;;;;12.05;7.55;;;;;;;;;;4991198;28;20081;-71
2022/10/20 12:42:18;;;;;;;10.60;8.02;;;;;;;;;;4991106;28;20400;-71
2022/10/20 12:44:45;;;;;;;12.82;8.20;;;;;;;;;;4990456;28;20030;-73
2022/10/20 12:47:18;;;;;;;16.27;8.75;;;;;;;;;;4990361;28;20038;-72
2022/10/20 12:49:51;;;;;;;16.55;9.32;;;;;;;;;;4986155;28;20031;-72
2022/10/20 12:52:21;;;;;;;12.30;9.52;;;;;;;;;;4988935;28;20026;-73
2022/10/20 12:54:53;;;;;;;13.20;10.23;;;;;;;;;;4990559;28;20077;-72
2022/10/20 12:57:25;;;;;;;16.63;10.30;;;;;;;;;;4990545;28;20102;-72
2022/10/20 12:59:51;;;;;;;15.82;9.80;;;;;;;;;;4990374;28;20441;-72
2022/10/20 13:02:17;;;;;;;13.98;9.82;;;;;;;;;;4985756;28;20046;-72
2022/10/20 13:04:59;;;;;;;11.02;9.65;;;;;;;;;;4993500;28;20033;-72
2022/10/20 13:07:44;;;;;;;15.85;10.82;;;;;;;;;;4996135;28;20541;-71
2022/10/20 13:10:28;;;;;;;16.27;11.07;;;;;;;;;;4988560;28;20528;-72
2022/10/20 13:13:15;;;;;;;10.90;9.60;;;;;;;;;;5003957;28;20124;-72
2022/10/20 13:15:44;;;;;;;17.90;10.88;;;;;;;;;;4984537;28;20081;-72
2022/10/20 13:18:16;;;;;;;13.60;10.57;;;;;;;;;;4989708;28;20344;-74
2022/10/20 13:20:42;;;;;;;13.93;10.43;;;;;;;;;;4981224;28;20038;-71
2022/10/20 13:23:15;;;;;;;16.08;12.32;;;;;;;;;;4990668;28;20481;-72
2022/10/20 13:25:52;;;;;;;12.48;10.27;;;;;;;;;;4981514;28;20034;-75
2022/10/20 13:28:22;;;;;;;16.05;11.18;;;;;;;;;;4986424;28;20031;-70
2022/10/20 13:30:48;;;;;;;15.63;13.43;;;;;;;;;;4984410;28;20050;-71
2022/10/20 13:33:33;;;;;;;13.13;11.15;;;;;;;;;;4975135;28;20034;-74
2022/10/20 13:36:11;;;;;;;13.98;11.15;;;;;;;;;;4983957;28;20042;-71
2022/10/20 13:38:40;;;;;;;15.68;11.43;;;;;;;;;;4984674;28;20475;-70
2022/10/20 13:41:25;;;;;;;20.60;13.40;;;;;;;;;;4985049;28;20387;-71
2022/10/20 13:44:06;;;;;;;18.58;13.15;;;;;;;;;;4984435;28;20061;-71
2022/10/20 13:46:35;;;;;;;17.75;13.18;;;;;;;;;;4985925;28;20037;-71
2022/10/20 13:49:10;;;;;;;19.35;12.32;;;;;;;;;;4988602;28;20050;-72
2022/10/20 13:51:51;;;;;;;18.65;14.02;;;;;;;;;;4984066;28;20035;-71
2022/10/20 13:54:29;;;;;;;17.67;15.07;;;;;;;;;;4988400;28;20034;-71
2022/10/20 13:56:56;;;;;;;20.27;12.60;;;;;;;;;;4993611;28;20033;-72
2022/10/20 13:59:23;;;;;;;19.23;12.80;;;;;;;;;;4993906;28;20035;-76
2022/10/20 14:01:56;;;;;;;14.52;12.65;;;;;;;;;;4980296;28;20049;-72
2022/10/20 14:04:28;;;;;;;20.00;14.80;;;;;;;;;;4980016;28;20031;-74
2022/10/20 14:06:57;;;;;;;22.48;15.05;;;;;;;;;;4991447;28;20134;-74
2022/10/20 14:09:24;;;;;;;19.75;15.35;;;;;;;;;;4985267;28;20043;-73
2022/10/20 14:11:53;;;;;;;23.85;15.55;;;;;;;;;;4992720;28;20045;-73
2022/10/20 14:14:24;;;;;;;20.02;15.38;;;;;;;;;;4982782;28;20046;-74
2022/10/20 14:17:11;;;;;;;20.20;15.40;;;;;;;;;;4991761;28;20109;-72
2022/10/20 14:19:37;;;;;;;18.08;14.70;;;;;;;;;;4990624;28;20088;-76
2022/10/20 14:22:16;;;;;;;18.42;15.73;;;;;;;;;;4992436;28;20129;-72
2022/10/20 14:24:43;;;;;;;23.10;15.75;;;;;;;;;;4987566;28;20030;-72
2022/10/20 14:27:21;;;;;;;20.02;15.00;;;;;;;;;;4989449;28;20475;-72
2022/10/20 14:29:47;;;;;;;22.73;16.27;;;;;;;;;;4988810;28;20434;-73
2022/10/20 14:32:24;;;;;;;21.48;15.90;;;;;;;;;;4991810;28;20046;-72
2022/10/20 14:34:57;;;;;;;20.90;15.82;;;;;;;;;;4991962;28;20035;-73
2022/10/20 14:37:35;;;;;;;23.23;17.05;;;;;;;;;;4982375;28;20068;-71
2022/10/20 14:40:03;;;;;;;24.27;16.90;;;;;;;;;;4990214;28;20084;-74
2022/10/20 14:42:30;;;;;;;23.60;16.13;;;;;;;;;;4994023;28;20038;-72
2022/10/20 14:44:58;;;;;;;21.25;15.52;;;;;;;;;;4988966;28;20435;-72
2022/10/20 14:47:25;;;;;;;22.10;16.02;;;;;;;;;;4990321;28;20030;-72